createdAt,value
2018-01-17T00:00:54.891Z,986.52
2018-01-17T00:01:54.941Z,986.51
2018-01-17T00:02:55.000Z,986.50
2018-01-17T00:03:55.061Z,986.47
2018-01-17T00:04:55.120Z,986.47
2018-01-17T00:05:55.186Z,986.50
2018-01-17T00:06:55.237Z,986.48
2018-01-17T00:07:55.298Z,986.45
2018-01-17T00:08:55.358Z,986.38
2018-01-17T00:09:55.417Z,986.39
2018-01-17T00:11:55.536Z,986.31
2018-01-17T00:12:55.600Z,986.28
2018-01-17T00:13:55.653Z,986.24
2018-01-17T00:14:55.714Z,986.25
2018-01-17T00:15:55.783Z,986.23
2018-01-17T00:16:55.834Z,986.25
2018-01-17T00:17:55.893Z,986.18
2018-01-17T00:18:55.955Z,986.19
2018-01-17T00:19:56.012Z,986.16
2018-01-17T00:20:56.081Z,986.08
2018-01-17T00:21:56.129Z,986.06
2018-01-17T00:22:56.191Z,986.02
2018-01-17T00:23:56.249Z,986.00
2018-01-17T00:24:56.310Z,985.92
2018-01-17T00:26:56.428Z,985.73
2018-01-17T00:27:56.487Z,985.70
2018-01-17T00:28:56.555Z,985.70
2018-01-17T00:29:56.607Z,985.70
2018-01-17T00:30:56.664Z,985.71
2018-01-17T00:31:56.734Z,985.67
2018-01-17T00:32:56.785Z,985.66
2018-01-17T00:33:56.844Z,985.64
2018-01-17T00:34:56.903Z,985.62
2018-01-17T00:35:56.966Z,985.66
2018-01-17T00:36:57.031Z,985.74
2018-01-17T00:37:57.082Z,985.80
2018-01-17T00:38:57.142Z,985.82
2018-01-17T00:39:57.201Z,985.88
2018-01-17T00:40:57.261Z,985.91
2018-01-17T00:41:57.332Z,985.88
2018-01-17T00:42:57.388Z,985.83
2018-01-17T00:43:57.439Z,985.76
2018-01-17T00:44:57.499Z,985.75
2018-01-17T00:45:57.561Z,985.78
2018-01-17T00:46:57.617Z,985.80
2018-01-17T00:47:57.686Z,985.75
2018-01-17T00:48:57.737Z,985.78
2018-01-17T00:49:57.796Z,985.81
2018-01-17T00:50:57.855Z,985.84
2018-01-17T00:51:57.917Z,985.83
2018-01-17T00:52:57.983Z,985.88
2018-01-17T00:53:58.041Z,985.80
2018-01-17T00:54:58.095Z,985.79
2018-01-17T00:55:58.153Z,985.81
2018-01-17T00:56:58.262Z,985.85
2018-01-17T00:57:58.293Z,985.81
2018-01-17T00:58:58.331Z,985.81
2018-01-17T00:59:58.390Z,985.79
2018-01-17T01:00:58.450Z,985.79
2018-01-17T01:01:58.511Z,985.78
2018-01-17T01:02:58.578Z,985.74
2018-01-17T01:03:58.628Z,985.77
2018-01-17T01:04:58.688Z,985.72
2018-01-17T01:05:58.746Z,985.72
2018-01-17T01:06:58.806Z,985.68
2018-01-17T01:07:58.875Z,985.65
2018-01-17T01:08:58.934Z,985.63
2018-01-17T01:09:58.984Z,985.61
2018-01-17T01:10:59.044Z,985.58
2018-01-17T01:11:59.103Z,985.60
2018-01-17T01:12:59.163Z,985.59
2018-01-17T01:14:59.281Z,985.63
2018-01-17T01:15:59.341Z,985.65
2018-01-17T01:16:59.401Z,985.63
2018-01-17T01:17:59.460Z,985.66
2018-01-17T01:18:59.528Z,985.59
2018-01-17T01:19:59.579Z,985.58
2018-01-17T01:20:59.639Z,985.60
2018-01-17T01:21:59.697Z,985.64
2018-01-17T01:22:59.757Z,985.63
2018-01-17T01:23:59.827Z,985.62
2018-01-17T01:24:59.876Z,985.54
2018-01-17T01:25:59.934Z,985.59
2018-01-17T01:26:59.994Z,985.66
2018-01-17T01:28:00.055Z,985.70
2018-01-17T01:29:00.124Z,985.71
2018-01-17T01:30:00.172Z,985.72
2018-01-17T01:31:00.232Z,985.73
2018-01-17T01:32:00.292Z,985.69
2018-01-17T01:33:00.352Z,985.71
2018-01-17T01:34:00.419Z,985.75
2018-01-17T01:35:00.486Z,985.80
2018-01-17T01:36:00.529Z,985.87
2018-01-17T01:37:00.590Z,985.79
2018-01-17T01:38:00.648Z,985.74
2018-01-17T01:39:00.706Z,985.71
2018-01-17T01:40:00.776Z,985.71
2018-01-17T01:41:00.827Z,985.72
2018-01-17T01:42:00.885Z,985.74
2018-01-17T01:43:00.944Z,985.77
2018-01-17T01:44:01.004Z,985.78
2018-01-17T01:45:01.075Z,985.78
2018-01-17T01:46:01.123Z,985.79
2018-01-17T01:47:01.183Z,985.84
2018-01-17T01:48:01.242Z,985.82
2018-01-17T01:49:01.305Z,985.86
2018-01-17T01:50:01.367Z,985.88
2018-01-17T01:51:01.420Z,985.90
2018-01-17T01:52:01.512Z,985.83
2018-01-17T01:53:01.538Z,985.85
2018-01-17T01:54:01.600Z,985.93
2018-01-17T01:55:01.657Z,985.90
2018-01-17T01:56:01.717Z,985.89
2018-01-17T01:57:01.785Z,985.92
2018-01-17T01:58:01.834Z,985.89
2018-01-17T01:59:01.895Z,985.95
2018-01-17T02:00:01.972Z,985.98
2018-01-17T02:01:02.014Z,986.01
2018-01-17T02:02:02.119Z,986.01
2018-01-17T02:03:02.132Z,986.06
2018-01-17T02:04:02.193Z,986.08
2018-01-17T02:05:02.261Z,986.07
2018-01-17T02:06:02.310Z,986.01
2018-01-17T02:07:02.370Z,986.05
2018-01-17T02:08:02.432Z,986.10
2018-01-17T02:09:02.489Z,986.10
2018-01-17T02:10:02.556Z,986.17
2018-01-17T02:11:02.615Z,986.21
2018-01-17T02:12:02.666Z,986.22
2018-01-17T02:13:02.726Z,986.22
2018-01-17T02:14:02.785Z,986.27
2018-01-17T02:15:02.845Z,986.14
2018-01-17T02:16:02.915Z,986.26
2018-01-17T02:17:02.964Z,986.25
2018-01-17T02:18:03.023Z,986.21
2018-01-17T02:19:03.083Z,986.18
2018-01-17T02:20:03.142Z,986.23
2018-01-17T02:21:03.211Z,986.28
2018-01-17T02:22:03.260Z,986.24
2018-01-17T02:23:03.319Z,986.22
2018-01-17T02:24:03.379Z,986.26
2018-01-17T02:25:03.439Z,986.27
2018-01-17T02:26:03.542Z,986.23
2018-01-17T02:27:03.556Z,986.24
2018-01-17T02:28:03.617Z,986.23
2018-01-17T02:29:03.677Z,986.20
2018-01-17T02:30:03.735Z,986.17
2018-01-17T02:31:03.817Z,986.16
2018-01-17T02:32:03.855Z,986.19
2018-01-17T02:33:03.914Z,986.21
2018-01-17T02:34:03.973Z,986.14
2018-01-17T02:35:04.032Z,986.13
2018-01-17T02:36:04.107Z,986.08
2018-01-17T02:37:04.151Z,986.05
2018-01-17T02:38:04.210Z,986.09
2018-01-17T02:39:04.270Z,986.17
2018-01-17T02:40:04.330Z,986.15
2018-01-17T02:41:04.399Z,986.21
2018-01-17T02:42:04.456Z,986.11
2018-01-17T02:43:04.506Z,986.14
2018-01-17T02:44:04.566Z,986.14
2018-01-17T02:45:04.627Z,986.14
2018-01-17T02:46:04.684Z,986.10
2018-01-17T02:48:04.804Z,986.23
2018-01-17T02:49:04.864Z,986.27
2018-01-17T02:50:04.921Z,986.28
2018-01-17T02:51:04.982Z,986.28
2018-01-17T02:52:05.050Z,986.30
2018-01-17T02:53:05.101Z,986.31
2018-01-17T02:54:05.160Z,986.30
2018-01-17T02:55:05.220Z,986.27
2018-01-17T02:56:05.278Z,986.31
2018-01-17T02:57:05.345Z,986.35
2018-01-17T02:58:05.397Z,986.31
2018-01-17T02:59:05.471Z,986.27
2018-01-17T03:00:05.516Z,986.24
2018-01-17T03:01:05.575Z,986.27
2018-01-17T03:02:05.639Z,986.22
2018-01-17T03:03:05.694Z,986.24
2018-01-17T03:04:05.773Z,986.25
2018-01-17T03:05:05.813Z,986.24
2018-01-17T03:06:05.871Z,986.29
2018-01-17T03:07:05.929Z,986.33
2018-01-17T03:08:05.998Z,986.35
2018-01-17T03:09:06.049Z,986.29
2018-01-17T03:10:06.109Z,986.32
2018-01-17T03:11:06.168Z,986.35
2018-01-17T03:12:06.228Z,986.33
2018-01-17T03:13:06.295Z,986.35
2018-01-17T03:14:06.346Z,986.37
2018-01-17T03:15:06.405Z,986.37
2018-01-17T03:16:06.466Z,986.37
2018-01-17T03:17:06.524Z,986.41
2018-01-17T03:18:06.591Z,986.43
2018-01-17T03:19:06.648Z,986.40
2018-01-17T03:20:06.703Z,986.37
2018-01-17T03:21:06.762Z,986.36
2018-01-17T03:22:06.819Z,986.35
2018-01-17T03:23:06.891Z,986.37
2018-01-17T03:24:06.938Z,986.38
2018-01-17T03:25:06.999Z,986.41
2018-01-17T03:26:07.060Z,986.43
2018-01-17T03:27:07.115Z,986.49
2018-01-17T03:28:07.187Z,986.52
2018-01-17T03:29:07.235Z,986.55
2018-01-17T03:30:07.295Z,986.58
2018-01-17T03:31:07.354Z,986.59
2018-01-17T03:32:07.412Z,986.69
2018-01-17T03:33:07.531Z,986.70
2018-01-17T03:34:07.531Z,986.70
2018-01-17T03:35:07.592Z,986.74
2018-01-17T03:36:07.655Z,986.79
2018-01-17T03:37:07.717Z,986.83
2018-01-17T03:38:07.785Z,986.91
2018-01-17T03:39:07.826Z,986.86
2018-01-17T03:40:07.887Z,986.75
2018-01-17T03:41:07.947Z,986.75
2018-01-17T03:42:08.005Z,986.73
2018-01-17T03:43:08.075Z,986.63
2018-01-17T03:44:08.123Z,986.64
2018-01-17T03:45:08.183Z,986.68
2018-01-17T03:46:08.242Z,986.67
2018-01-17T03:47:08.301Z,986.70
2018-01-17T03:48:08.372Z,986.63
2018-01-17T03:49:08.464Z,986.63
2018-01-17T03:50:08.478Z,986.64
2018-01-17T03:51:08.538Z,986.62
2018-01-17T03:52:08.597Z,986.67
2018-01-17T03:53:08.674Z,986.72
2018-01-17T03:54:08.725Z,986.66
2018-01-17T03:55:08.775Z,986.70
2018-01-17T03:56:08.834Z,986.73
2018-01-17T03:57:08.894Z,986.75
2018-01-17T03:58:08.951Z,986.65
2018-01-17T03:59:09.020Z,986.64
2018-01-17T04:00:09.071Z,986.65
2018-01-17T04:01:09.130Z,986.71
2018-01-17T04:02:09.189Z,986.70
2018-01-17T04:03:09.249Z,986.73
2018-01-17T04:04:09.316Z,986.68
2018-01-17T04:05:09.368Z,986.72
2018-01-17T04:06:09.428Z,986.72
2018-01-17T04:07:09.486Z,986.72
2018-01-17T04:08:09.545Z,986.75
2018-01-17T04:09:09.615Z,986.79
2018-01-17T04:10:09.667Z,986.85
2018-01-17T04:11:09.725Z,986.79
2018-01-17T04:12:09.780Z,986.90
2018-01-17T04:13:09.843Z,986.88
2018-01-17T04:14:09.910Z,986.91
2018-01-17T04:15:09.958Z,986.88
2018-01-17T04:16:10.018Z,986.85
2018-01-17T04:17:10.078Z,986.90
2018-01-17T04:18:10.136Z,986.91
2018-01-17T04:19:10.212Z,986.93
2018-01-17T04:20:10.258Z,986.97
2018-01-17T04:21:10.314Z,986.95
2018-01-17T04:22:10.372Z,987.01
2018-01-17T04:23:10.433Z,986.95
2018-01-17T04:24:10.502Z,987.03
2018-01-17T04:25:10.559Z,987.12
2018-01-17T04:26:10.609Z,987.11
2018-01-17T04:27:10.721Z,987.04
2018-01-17T04:28:10.728Z,987.04
2018-01-17T04:29:10.787Z,987.06
2018-01-17T04:30:10.858Z,987.11
2018-01-17T04:31:10.905Z,987.15
2018-01-17T04:32:10.965Z,987.20
2018-01-17T04:33:11.024Z,987.20
2018-01-17T04:34:11.082Z,987.29
2018-01-17T04:35:11.151Z,987.34
2018-01-17T04:36:11.202Z,987.30
2018-01-17T04:37:11.261Z,987.26
2018-01-17T04:38:11.320Z,987.18
2018-01-17T04:39:11.378Z,987.12
2018-01-17T04:40:11.461Z,987.10
2018-01-17T04:41:11.497Z,987.18
2018-01-17T04:42:11.555Z,987.20
2018-01-17T04:43:11.622Z,987.28
2018-01-17T04:44:11.673Z,987.38
2018-01-17T04:45:11.733Z,987.45
2018-01-17T04:46:11.791Z,987.48
2018-01-17T04:47:11.850Z,987.50
2018-01-17T04:48:11.917Z,987.46
2018-01-17T04:49:11.969Z,987.43
2018-01-17T04:50:12.027Z,987.45
2018-01-17T04:51:12.094Z,987.43
2018-01-17T04:52:12.146Z,987.39
2018-01-17T04:53:12.205Z,987.46
2018-01-17T04:54:12.263Z,987.62
2018-01-17T04:55:12.322Z,987.68
2018-01-17T04:56:12.392Z,987.69
2018-01-17T04:57:12.441Z,987.74
2018-01-17T04:58:12.499Z,987.75
2018-01-17T04:59:12.558Z,987.81
2018-01-17T05:00:12.617Z,987.93
2018-01-17T05:01:12.686Z,987.91
2018-01-17T05:02:12.735Z,987.96
2018-01-17T05:03:12.895Z,987.96
2018-01-17T05:04:12.856Z,988.06
2018-01-17T05:05:12.912Z,988.12
2018-01-17T05:06:12.978Z,988.07
2018-01-17T05:07:13.032Z,988.13
2018-01-17T05:08:13.089Z,988.15
2018-01-17T05:09:13.149Z,988.08
2018-01-17T05:10:13.207Z,988.24
2018-01-17T05:11:13.283Z,988.30
2018-01-17T05:12:13.326Z,988.42
2018-01-17T05:13:13.384Z,988.30
2018-01-17T05:14:13.442Z,988.32
2018-01-17T05:15:13.502Z,988.32
2018-01-17T05:16:13.569Z,988.47
2018-01-17T05:17:13.628Z,988.42
2018-01-17T05:18:13.678Z,988.44
2018-01-17T05:19:13.739Z,988.39
2018-01-17T05:20:13.797Z,988.01
2018-01-17T05:21:13.857Z,987.91
2018-01-17T05:22:13.924Z,988.08
2018-01-17T05:23:13.974Z,988.16
2018-01-17T05:24:14.033Z,988.30
2018-01-17T05:25:14.091Z,988.41
2018-01-17T05:26:14.153Z,988.50
2018-01-17T05:27:14.220Z,988.45
2018-01-17T05:28:14.270Z,988.42
2018-01-17T05:29:14.326Z,988.33
2018-01-17T05:30:14.385Z,988.44
2018-01-17T05:31:14.448Z,988.44
2018-01-17T05:32:14.513Z,988.29
2018-01-17T05:33:14.572Z,988.32
2018-01-17T05:34:14.621Z,988.46
2018-01-17T05:35:14.682Z,988.31
2018-01-17T05:36:14.739Z,988.32
2018-01-17T05:37:14.798Z,988.30
2018-01-17T05:38:14.865Z,988.36
2018-01-17T05:39:14.916Z,988.34
2018-01-17T05:40:14.974Z,988.35
2018-01-17T05:41:15.034Z,988.40
2018-01-17T05:42:15.092Z,988.40
2018-01-17T05:43:15.163Z,988.44
2018-01-17T05:44:15.210Z,988.46
2018-01-17T05:45:15.270Z,988.43
2018-01-17T05:46:15.331Z,988.46
2018-01-17T05:47:15.388Z,988.39
2018-01-17T05:48:15.454Z,988.37
2018-01-17T05:49:15.506Z,988.37
2018-01-17T05:50:15.564Z,988.35
2018-01-17T05:51:15.623Z,988.35
2018-01-17T05:52:15.682Z,988.35
2018-01-17T05:53:15.755Z,988.31
2018-01-17T05:54:15.800Z,988.35
2018-01-17T05:55:15.859Z,988.28
2018-01-17T05:56:15.918Z,988.35
2018-01-17T05:57:15.975Z,988.34
2018-01-17T05:58:16.046Z,988.43
2018-01-17T05:59:16.094Z,988.43
2018-01-17T06:00:16.152Z,988.44
2018-01-17T06:01:16.212Z,988.47
2018-01-17T06:02:16.270Z,988.47
2018-01-17T06:03:16.336Z,988.59
2018-01-17T06:04:16.389Z,988.60
2018-01-17T06:05:16.448Z,988.65
2018-01-17T06:06:16.505Z,988.72
2018-01-17T06:07:16.574Z,988.70
2018-01-17T06:08:16.624Z,988.69
2018-01-17T06:09:16.689Z,988.75
2018-01-17T06:10:16.742Z,988.78
2018-01-17T06:11:16.800Z,988.79
2018-01-17T06:12:16.858Z,988.77
2018-01-17T06:13:16.918Z,988.80
2018-01-17T06:14:16.992Z,988.81
2018-01-17T06:15:17.034Z,988.86
2018-01-17T06:16:17.093Z,988.95
2018-01-17T06:17:17.154Z,988.94
2018-01-17T06:18:17.210Z,989.07
2018-01-17T06:19:17.279Z,989.03
2018-01-17T06:20:17.328Z,989.08
2018-01-17T06:21:17.386Z,989.13
2018-01-17T06:22:17.444Z,989.08
2018-01-17T06:23:17.503Z,989.14
2018-01-17T06:24:17.570Z,989.08
2018-01-17T06:25:17.619Z,989.10
2018-01-17T06:26:17.678Z,989.10
2018-01-17T06:27:17.737Z,989.09
2018-01-17T06:28:17.796Z,989.17
2018-01-17T06:29:17.871Z,989.18
2018-01-17T06:30:17.913Z,989.24
2018-01-17T06:31:17.971Z,989.35
2018-01-17T06:32:18.030Z,989.39
2018-01-17T06:33:18.088Z,989.42
2018-01-17T06:34:18.156Z,989.44
2018-01-17T06:35:18.204Z,989.57
2018-01-17T06:36:18.274Z,989.53
2018-01-17T06:37:18.321Z,989.39
2018-01-17T06:38:18.380Z,989.34
2018-01-17T06:39:18.449Z,989.46
2018-01-17T06:40:18.497Z,989.35
2018-01-17T06:41:18.555Z,989.44
2018-01-17T06:42:18.615Z,989.49
2018-01-17T06:43:18.671Z,989.53
2018-01-17T06:44:18.748Z,989.58
2018-01-17T06:45:18.789Z,989.54
2018-01-17T06:46:18.848Z,989.54
2018-01-17T06:47:18.908Z,989.47
2018-01-17T06:48:18.964Z,989.46
2018-01-17T06:49:19.031Z,989.51
2018-01-17T06:50:19.079Z,989.54
2018-01-17T06:51:19.139Z,989.52
2018-01-17T06:52:19.198Z,989.54
2018-01-17T06:53:19.254Z,989.57
2018-01-17T06:54:19.321Z,989.59
2018-01-17T06:55:19.384Z,989.61
2018-01-17T06:56:19.432Z,989.72
2018-01-17T06:57:19.488Z,989.77
2018-01-17T06:58:19.544Z,989.89
2018-01-17T07:00:19.662Z,989.89
2018-01-17T07:01:19.720Z,989.99
2018-01-17T07:02:19.777Z,990.01
2018-01-17T07:03:19.836Z,990.08
2018-01-17T07:04:19.903Z,990.19
2018-01-17T07:05:19.968Z,990.27
2018-01-17T07:06:20.010Z,990.21
2018-01-17T07:07:20.107Z,990.20
2018-01-17T07:08:20.128Z,990.22
2018-01-17T07:09:20.196Z,990.28
2018-01-17T07:10:20.258Z,990.32
2018-01-17T07:11:20.344Z,990.40
2018-01-17T07:12:20.362Z,990.40
2018-01-17T07:13:20.488Z,990.40
2018-01-17T07:14:20.615Z,990.45
2018-01-17T07:16:20.659Z,990.49
2018-01-17T07:17:20.719Z,990.53
2018-01-17T07:18:20.710Z,990.57
2018-01-17T07:19:20.796Z,990.59
2018-01-17T07:20:20.827Z,990.61
2018-01-17T07:21:20.888Z,990.64
2018-01-17T07:22:20.958Z,990.72
2018-01-17T07:23:21.020Z,990.76
2018-01-17T07:24:21.068Z,990.76
2018-01-17T07:25:21.235Z,990.78
2018-01-17T07:26:21.189Z,990.76
2018-01-17T07:27:21.252Z,990.83
2018-01-17T07:28:21.292Z,990.79
2018-01-17T07:29:21.351Z,990.83
2018-01-17T07:30:21.448Z,990.80
2018-01-17T07:31:21.485Z,990.89
2018-01-17T07:32:21.525Z,990.85
2018-01-17T07:34:21.691Z,990.81
2018-01-17T07:35:21.700Z,990.90
2018-01-17T07:36:21.766Z,990.89
2018-01-17T07:37:21.816Z,990.89
2018-01-17T07:38:21.926Z,990.98
2018-01-17T07:39:21.936Z,990.96
2018-01-17T07:40:21.991Z,990.96
2018-01-17T07:41:22.061Z,991.01
2018-01-17T07:42:22.117Z,991.03
2018-01-17T07:43:22.191Z,991.09
2018-01-17T07:44:22.225Z,991.13
2018-01-17T07:45:22.283Z,991.20
2018-01-17T07:46:22.350Z,991.26
2018-01-17T07:47:22.407Z,991.36
2018-01-17T07:48:22.458Z,991.44
2018-01-17T07:49:22.563Z,991.48
2018-01-17T07:50:22.574Z,991.40
2018-01-17T07:51:22.631Z,991.41
2018-01-17T07:52:22.714Z,991.43
2018-01-17T07:53:22.756Z,991.36
2018-01-17T07:54:22.807Z,991.44
2018-01-17T07:55:22.865Z,991.42
2018-01-17T07:56:22.923Z,991.40
2018-01-17T07:57:22.990Z,991.44
2018-01-17T07:58:23.047Z,991.40
2018-01-17T07:59:23.100Z,991.40
2018-01-17T08:00:23.171Z,991.40
2018-01-17T08:01:23.218Z,991.40
2018-01-17T08:02:23.288Z,991.42
2018-01-17T08:03:23.330Z,991.44
2018-01-17T08:04:23.414Z,991.42
2018-01-17T08:05:23.450Z,991.45
2018-01-17T08:06:23.532Z,991.60
2018-01-17T08:08:23.656Z,991.60
2018-01-17T08:09:23.684Z,991.66
2018-01-17T08:10:23.738Z,991.65
2018-01-17T08:11:23.807Z,991.57
2018-01-17T08:12:23.857Z,991.54
2018-01-17T08:13:23.924Z,991.49
2018-01-17T08:14:23.982Z,991.40
2018-01-17T08:15:24.030Z,991.44
2018-01-17T08:16:24.089Z,991.50
2018-01-17T08:17:24.146Z,991.49
2018-01-17T08:18:24.225Z,991.57
2018-01-17T08:19:24.266Z,991.53
2018-01-17T08:20:24.323Z,991.54
2018-01-17T08:21:24.382Z,991.54
2018-01-17T08:22:24.442Z,991.62
2018-01-17T08:23:24.506Z,991.70
2018-01-17T08:24:24.557Z,991.73
2018-01-17T08:25:24.617Z,991.81
2018-01-17T08:26:24.674Z,991.83
2018-01-17T08:27:24.737Z,991.85
2018-01-17T08:28:24.803Z,991.87
2018-01-17T08:29:24.855Z,991.88
2018-01-17T08:30:24.908Z,991.96
2018-01-17T08:31:24.967Z,991.97
2018-01-17T08:32:25.026Z,991.93
2018-01-17T08:33:25.120Z,991.89
2018-01-17T08:34:25.143Z,991.92
2018-01-17T08:35:25.202Z,992.03
2018-01-17T08:36:25.261Z,991.95
2018-01-17T08:37:25.321Z,992.02
2018-01-17T08:38:25.387Z,992.08
2018-01-17T08:39:25.445Z,992.08
2018-01-17T08:40:25.496Z,992.14
2018-01-17T08:41:25.556Z,992.14
2018-01-17T08:42:25.614Z,992.22
2018-01-17T08:43:25.673Z,992.24
2018-01-17T08:44:25.740Z,992.31
2018-01-17T08:45:25.792Z,992.39
2018-01-17T08:46:25.849Z,992.39
2018-01-17T08:47:25.907Z,992.43
2018-01-17T08:48:25.967Z,992.48
2018-01-17T08:50:26.084Z,992.50
2018-01-17T08:51:26.144Z,992.54
2018-01-17T08:52:26.202Z,992.63
2018-01-17T08:53:26.261Z,992.69
2018-01-17T08:54:26.331Z,992.65
2018-01-17T08:55:26.378Z,992.66
2018-01-17T08:56:26.436Z,992.68
2018-01-17T08:57:26.496Z,992.68
2018-01-17T08:58:26.554Z,992.73
2018-01-17T08:59:26.625Z,992.73
2018-01-17T09:00:26.674Z,992.73
2018-01-17T09:01:26.732Z,992.86
2018-01-17T09:02:26.789Z,992.87
2018-01-17T09:03:26.848Z,992.85
2018-01-17T09:04:26.920Z,992.88
2018-01-17T09:05:26.982Z,992.91
2018-01-17T09:06:27.024Z,992.87
2018-01-17T09:07:27.083Z,992.90
2018-01-17T09:08:27.141Z,992.90
2018-01-17T09:09:27.209Z,992.93
2018-01-17T09:10:27.273Z,992.94
2018-01-17T09:11:27.332Z,992.94
2018-01-17T09:12:27.391Z,992.92
2018-01-17T09:13:27.446Z,993.01
2018-01-17T09:14:27.495Z,993.01
2018-01-17T09:15:27.554Z,993.02
2018-01-17T09:16:27.620Z,993.06
2018-01-17T09:17:27.671Z,993.10
2018-01-17T09:18:27.729Z,993.14
2018-01-17T09:19:27.789Z,993.14
2018-01-17T09:20:27.871Z,993.20
2018-01-17T09:21:27.957Z,993.20
2018-01-17T09:22:27.965Z,993.22
2018-01-17T09:23:28.057Z,993.28
2018-01-17T09:24:28.084Z,993.31
2018-01-17T09:25:28.143Z,993.27
2018-01-17T09:26:28.200Z,993.25
2018-01-17T09:27:28.261Z,993.30
2018-01-17T09:28:28.333Z,993.28
2018-01-17T09:29:28.378Z,993.29
2018-01-17T09:30:28.436Z,993.26
2018-01-17T09:31:28.512Z,993.33
2018-01-17T09:32:28.564Z,993.33
2018-01-17T09:33:28.614Z,993.35
2018-01-17T09:34:28.674Z,993.42
2018-01-17T09:35:28.730Z,993.44
2018-01-17T09:36:28.805Z,993.47
2018-01-17T09:37:28.848Z,993.67
2018-01-17T09:38:28.908Z,993.68
2018-01-17T09:39:29.066Z,993.73
2018-01-17T09:40:29.025Z,993.76
2018-01-17T09:41:29.116Z,993.72
2018-01-17T09:42:29.141Z,993.76
2018-01-17T09:43:29.201Z,993.78
2018-01-17T09:44:29.260Z,993.91
2018-01-17T09:45:29.319Z,993.85
2018-01-17T09:46:29.385Z,993.83
2018-01-17T09:47:29.445Z,993.88
2018-01-17T09:48:29.495Z,993.94
2018-01-17T09:49:29.554Z,993.94
2018-01-17T09:50:29.612Z,993.94
2018-01-17T09:51:29.670Z,993.89
2018-01-17T09:52:29.753Z,993.91
2018-01-17T09:53:29.797Z,993.90
2018-01-17T09:54:29.846Z,993.90
2018-01-17T09:55:29.905Z,994.02
2018-01-17T09:56:29.964Z,994.00
2018-01-17T09:57:30.024Z,993.94
2018-01-17T09:59:30.140Z,993.91
2018-01-17T10:00:30.198Z,994.05
2018-01-17T10:01:30.256Z,994.07
2018-01-17T10:02:30.316Z,994.01
2018-01-17T10:03:30.385Z,994.01
2018-01-17T10:04:30.481Z,994.01
2018-01-17T10:05:30.491Z,994.03
2018-01-17T10:06:30.550Z,994.12
2018-01-17T10:07:30.609Z,994.10
2018-01-17T10:08:30.677Z,994.15
2018-01-17T10:09:30.727Z,994.13
2018-01-17T10:10:30.823Z,994.20
2018-01-17T10:11:30.846Z,994.19
2018-01-17T10:12:30.905Z,994.26
2018-01-17T10:13:30.972Z,994.32
2018-01-17T10:14:31.020Z,994.26
2018-01-17T10:15:31.080Z,994.33
2018-01-17T10:16:31.138Z,994.32
2018-01-17T10:17:31.197Z,994.36
2018-01-17T10:18:31.265Z,994.30
2018-01-17T10:19:31.314Z,994.35
2018-01-17T10:20:31.374Z,994.37
2018-01-17T10:21:31.433Z,994.42
2018-01-17T10:22:31.490Z,994.44
2018-01-17T10:23:31.574Z,994.44
2018-01-17T10:24:31.609Z,994.40
2018-01-17T10:25:31.667Z,994.44
2018-01-17T10:26:31.733Z,994.52
2018-01-17T10:27:31.784Z,994.51
2018-01-17T10:28:31.851Z,994.53
2018-01-17T10:29:31.950Z,994.59
2018-01-17T10:30:32.008Z,994.59
2018-01-17T10:31:32.053Z,994.56
2018-01-17T10:32:32.114Z,994.64
2018-01-17T10:33:32.172Z,994.60
2018-01-17T10:34:32.233Z,994.68
2018-01-17T10:35:32.297Z,994.72
2018-01-17T10:36:32.356Z,994.72
2018-01-17T10:37:32.413Z,994.78
2018-01-17T10:38:32.464Z,994.74
2018-01-17T10:39:32.524Z,994.72
2018-01-17T10:41:32.643Z,994.74
2018-01-17T10:42:32.700Z,994.68
2018-01-17T10:43:32.762Z,994.67
2018-01-17T10:44:32.837Z,994.74
2018-01-17T10:45:32.894Z,994.72
2018-01-17T10:46:32.936Z,994.75
2018-01-17T10:47:33.039Z,994.74
2018-01-17T10:48:33.054Z,994.66
2018-01-17T10:49:33.112Z,994.75
2018-01-17T10:50:33.180Z,994.65
2018-01-17T10:51:33.229Z,994.72
2018-01-17T10:52:33.290Z,994.67
2018-01-17T10:53:33.346Z,994.66
2018-01-17T10:54:33.405Z,994.60
2018-01-17T10:55:33.474Z,994.71
2018-01-17T10:56:33.532Z,994.72
2018-01-17T10:57:33.582Z,994.75
2018-01-17T10:58:33.639Z,994.70
2018-01-17T10:59:33.710Z,994.72
2018-01-17T11:00:33.759Z,994.68
2018-01-17T11:01:33.827Z,994.71
2018-01-17T11:02:33.878Z,994.77
2018-01-17T11:03:33.935Z,994.75
2018-01-17T11:04:34.023Z,994.75
2018-01-17T11:05:34.053Z,994.79
2018-01-17T11:06:34.120Z,994.78
2018-01-17T11:07:34.171Z,994.80
2018-01-17T11:08:34.229Z,994.92
2018-01-17T11:09:34.288Z,994.88
2018-01-17T11:10:34.348Z,994.92
2018-01-17T11:12:34.464Z,994.97
2018-01-17T11:13:34.556Z,994.99
2018-01-17T11:14:34.582Z,995.04
2018-01-17T11:15:34.641Z,994.99
2018-01-17T11:16:34.717Z,994.99
2018-01-17T11:17:34.759Z,995.08
2018-01-17T11:18:34.832Z,995.05
2018-01-17T11:19:34.876Z,994.99
2018-01-17T11:20:34.935Z,995.01
2018-01-17T11:21:35.004Z,995.07
2018-01-17T11:22:35.062Z,995.05
2018-01-17T11:23:35.112Z,995.10
2018-01-17T11:24:35.182Z,995.08
2018-01-17T11:25:35.237Z,995.16
2018-01-17T11:26:35.298Z,995.10
2018-01-17T11:27:35.357Z,995.14
2018-01-17T11:28:35.409Z,995.15
2018-01-17T11:29:35.466Z,995.14
2018-01-17T11:30:35.524Z,995.14
2018-01-17T11:31:35.582Z,995.20
2018-01-17T11:32:35.652Z,995.09
2018-01-17T11:33:35.702Z,995.12
2018-01-17T11:34:35.762Z,995.15
2018-01-17T11:35:35.821Z,995.16
2018-01-17T11:36:35.878Z,995.13
2018-01-17T11:37:35.949Z,995.12
2018-01-17T11:38:35.997Z,995.10
2018-01-17T11:39:36.055Z,995.16
2018-01-17T11:40:36.116Z,995.06
2018-01-17T11:41:36.174Z,995.11
2018-01-17T11:42:36.242Z,995.03
2018-01-17T11:43:36.292Z,995.08
2018-01-17T11:44:36.351Z,995.20
2018-01-17T11:45:36.411Z,995.22
2018-01-17T11:46:36.471Z,995.14
2018-01-17T11:47:36.538Z,995.21
2018-01-17T11:48:36.592Z,995.18
2018-01-17T11:49:36.649Z,995.17
2018-01-17T11:50:36.706Z,995.14
2018-01-17T11:51:36.766Z,995.20
2018-01-17T11:52:36.839Z,995.21
2018-01-17T11:53:36.893Z,995.24
2018-01-17T11:54:36.943Z,995.28
2018-01-17T11:55:37.003Z,995.29
2018-01-17T11:56:37.061Z,995.34
2018-01-17T11:57:37.136Z,995.27
2018-01-17T11:59:37.239Z,995.29
2018-01-17T12:00:37.300Z,995.30
2018-01-17T12:01:37.359Z,995.29
2018-01-17T12:02:37.416Z,995.25
2018-01-17T12:03:37.482Z,995.25
2018-01-17T12:04:37.535Z,995.25
2018-01-17T12:05:37.601Z,995.26
2018-01-17T12:06:37.653Z,995.26
2018-01-17T12:07:37.712Z,995.26
2018-01-17T12:08:37.782Z,995.31
2018-01-17T12:09:37.830Z,995.33
2018-01-17T12:10:37.889Z,995.34
2018-01-17T12:11:37.950Z,995.43
2018-01-17T12:12:38.024Z,995.47
2018-01-17T12:13:38.077Z,995.48
2018-01-17T12:14:38.126Z,995.47
2018-01-17T12:15:38.185Z,995.46
2018-01-17T12:16:38.244Z,995.41
2018-01-17T12:17:38.303Z,995.50
2018-01-17T12:18:38.371Z,995.51
2018-01-17T12:19:38.429Z,995.53
2018-01-17T12:20:38.486Z,995.52
2018-01-17T12:21:38.541Z,995.51
2018-01-17T12:22:38.599Z,995.48
2018-01-17T12:23:38.658Z,995.53
2018-01-17T12:24:38.726Z,995.52
2018-01-17T12:25:38.776Z,995.54
2018-01-17T12:26:38.834Z,995.54
2018-01-17T12:27:38.894Z,995.56
2018-01-17T12:28:38.968Z,995.56
2018-01-17T12:29:39.025Z,995.52
2018-01-17T12:30:39.072Z,995.59
2018-01-17T12:31:39.131Z,995.58
2018-01-17T12:32:39.192Z,995.52
2018-01-17T12:33:39.249Z,995.60
2018-01-17T12:34:39.322Z,995.61
2018-01-17T12:35:39.367Z,995.66
2018-01-17T12:36:39.427Z,995.62
2018-01-17T12:37:39.485Z,995.62
2018-01-17T12:38:39.544Z,995.68
2018-01-17T12:39:39.613Z,995.68
2018-01-17T12:40:39.661Z,995.69
2018-01-17T12:41:39.725Z,995.70
2018-01-17T12:42:39.780Z,995.75